Nearby METAR Reports

 

KSYN - Stanton, Minnesota, USA
Distance from station: NW 20mi, 33km
Updated: Fri, 12-Apr-2024 6:35pm CDT
Clear
Clear
 Wind from NW
Wind: NW 14 mph, 22 km/h, Gust: 20 mph, 31 km/h
Temperature: 59°F, 15°C
Dew Point: 28°F, -2°C
Humidity: 31%
Barometer: 30.01 inHg, 1016.3 hPa
Clouds: Clear
Visibility: 10 miles, 16 km
2024/04/12 23:35 KSYN 122335Z AUTO 31012G17KT 10SM CLR 15/M02 A3001 RMK AO2 T01501025
KTOB - Dodge Center, Minnesota, USA
Distance from station: SSW 21mi, 34km
Updated: Fri, 12-Apr-2024 6:35pm CDT
Clear
Clear
 Wind from WNW
Wind: WNW 13 mph, 20 km/h, Gust: 21 mph, 33 km/h
Temperature: 57°F, 14°C
Dew Point: 27°F, -3°C
Humidity: 31%
Barometer: 30.02 inHg, 1016.6 hPa
Clouds: Clear
Visibility: 10 miles, 16 km
2024/04/12 23:35 KTOB 122335Z AUTO 30011G18KT 10SM CLR 14/M03 A3002 RMK AO2
K9MN - St Mary Hospital, Minnesota, USA
Distance from station: SSE 22mi, 35km
Updated: Fri, 12-Apr-2024 6:35pm CDT
Clear
Clear
 Wind from WNW
Wind: WNW 16 mph, 26 km/h, Gust: 24 mph, 39 km/h
Temperature: 57°F, 14°C
Dew Point: 25°F, -4°C
Humidity: 29%
Barometer: 30.01 inHg, 1016.3 hPa
Clouds: Clear
Visibility: 10 miles, 16 km
2024/04/12 23:35 K9MN 122335Z AUTO 30014G21KT 10SM CLR 14/M04 A3001 RMK AO1 T01411040
 
KRGK - Red Wing, Minnesota, USA
Distance from station: NNE 22mi, 35km
Updated: Fri, 12-Apr-2024 6:35pm CDT
Clear
Clear
 Wind from NW
Wind: NW 10 mph, 17 km/h, Gust: 16 mph, 26 km/h
Temperature: 61°F, 16°C
Dew Point: 25°F, -4°C
Humidity: 25%
Barometer: 29.99 inHg, 1015.6 hPa
Clouds: Clear
Visibility: 10 miles, 16 km
2024/04/12 23:35 KRGK 122335Z AUTO 32009G14KT 10SM CLR 16/M04 A2999 RMK AO2
KRST - Rochester, Minnesota, USA
Distance from station: SSE 29mi, 47km
Updated: Fri, 12-Apr-2024 5:54pm CDT
Clear
Clear
 Wind from NNW
Wind: NNW 18 mph, 30 km/h
Temperature: 57°F, 14°C
Dew Point: 27°F, -3°C
Humidity: 31%
Barometer: 30.00 inHg, 1015.9 hPa
Clouds: Clear
Visibility: 10 miles, 16 km
2024/04/12 22:54 KRST 122254Z 33016KT 10SM CLR 14/M03 A3000 RMK AO2 PK WND 30029/2156 SLP165 T01441028
KOWA - Owatonna, Minnesota, USA
Distance from station: WSW 31mi, 50km
Updated: Fri, 12-Apr-2024 6:33pm CDT
Clear
Clear
 Wind from WNW
Wind: WNW 17 mph, 28 km/h, Gust: 24 mph, 39 km/h
Temperature: 59°F, 15°C
Dew Point: 28°F, -2°C
Humidity: 31%
Barometer: 30.02 inHg, 1016.6 hPa
Clouds: Clear
Visibility: 10 miles, 16 km
2024/04/12 23:33 KOWA 122333Z AUTO 30015G21KT 10SM CLR 15/M02 A3002 RMK AO2
 
KFBL - Faribault Muni, Minnesota, USA
Distance from station: W 32mi, 51km
Updated: Fri, 12-Apr-2024 6:35pm CDT
Clear
Clear
 Wind from W
Wind: W 12 mph, 19 km/h
Temperature: 59°F, 15°C
Dew Point: 27°F, -3°C
Humidity: 29%
Barometer: 30.03 inHg, 1016.9 hPa
Clouds: Clear
Visibility: 10 miles, 16 km
2024/04/12 23:35 KFBL 122335Z AUTO 28010KT 10SM CLR 15/M03 A3003 RMK AO2
KSGS - South St Paul, Minnesota, USA
Distance from station: NNW 43mi, 69km
Updated: Fri, 12-Apr-2024 6:35pm CDT
Clear
Clear
 Wind from NW
Wind: NW 13 mph, 20 km/h, Gust: 18 mph, 30 km/h
Temperature: 59°F, 15°C
Dew Point: 27°F, -3°C
Humidity: 29%
Barometer: 30.00 inHg, 1015.9 hPa
Clouds: Clear
Visibility: 7 miles, 11 km
2024/04/12 23:35 KSGS 122335Z AUTO 31011G16KT 7SM CLR 15/M03 A3000 RMK AO2 T01531030
KAUM - Austin Muni, Minnesota, USA
Distance from station: SSW 46mi, 73km
Updated: Fri, 12-Apr-2024 6:35pm CDT
Clear
Clear
 Wind from NW
Wind: NW 12 mph, 19 km/h
Temperature: 59°F, 15°C
Dew Point: 30°F, -1°C
Humidity: 34%
Barometer: 30.03 inHg, 1016.9 hPa
Clouds: Clear
Visibility: 10 miles, 16 km
2024/04/12 23:35 KAUM 122335Z AUTO 32010KT 10SM CLR 15/M01 A3003 RMK AO2
 
KACQ - Waseca, Minnesota, USA
Distance from station: WSW 46mi, 75km
Updated: Fri, 12-Apr-2024 6:35pm CDT
Clear
Clear
 Wind from NNW
Wind: NNW 15 mph, 24 km/h, Gust: 20 mph, 31 km/h
Temperature: 59°F, 15°C
Dew Point: 28°F, -2°C
Humidity: 31%
Barometer: 30.04 inHg, 1017.3 hPa
Clouds: Clear
Visibility: 10 miles, 16 km
2024/04/12 23:35 KACQ 122335Z AUTO 33013G17KT 10SM CLR 15/M02 A3004 RMK AO2
KSTP - St. Paul, Minnesota, USA
Distance from station: NNW 47mi, 76km
Updated: Fri, 12-Apr-2024 5:53pm CDT
Clear
Clear
 Wind from WNW
Wind: WNW 16 mph, 26 km/h, Gust: 29 mph, 46 km/h
Temperature: 61°F, 16°C
Dew Point: 28°F, -2°C
Humidity: 29%
Barometer: 30.01 inHg, 1016.3 hPa
Clouds: Clear
Visibility: 10 miles, 16 km
2024/04/12 22:53 KSTP 122253Z 29014G25KT 10SM CLR 16/M02 A3001 RMK AO2 SLP162 T01561017
KMSP - Minneapolis, Minnesota, USA
Distance from station: NW 49mi, 78km
Updated: Fri, 12-Apr-2024 5:53pm CDT
Few Clouds
Few Clouds
 Wind from WNW
Wind: WNW 18 mph, 30 km/h, Gust: 25 mph, 41 km/h
Temperature: 61°F, 16°C
Dew Point: 27°F, -3°C
Humidity: 27%
Barometer: 30.01 inHg, 1016.3 hPa
Clouds: Few Clouds
Visibility: 10 miles, 16 km
Cloud details: Few Clouds 6000 ft
Few Clouds 20000 ft
2024/04/12 22:53 KMSP 122253Z 30016G22KT 10SM FEW060 FEW200 16/M03 A3001 RMK AO2 PK WND 33026/2200 SLP165 T01561028